This is the latest recevied weather packets stored in our database for station/object OE3MHU-12. If no packets are shown the sender has not sent any weather packets the latest 10 day(s).
| Time | Temp. | Humidity | Pressure | Rain* | Wind** | Luminosity | Snow |
|---|---|---|---|---|---|---|---|
| 1788189187 | 26.11° C | 43% | 1014.1 hPa | 0 mm | - | - | - |
| 1788187552 | 26.67° C | 43% | 1014.2 hPa | 0 mm | - | - | - |
| 1788187387 | 26.67° C | 43% | 1014.2 hPa | 0 mm | - | - | - |
| 1788185587 | 27.22° C | 44% | 1014.3 hPa | 0 mm | - | - | - |
| 1788183921 | 27.22° C | 44% | 1014.1 hPa | 0 mm | - | - | - |
| 1788183787 | 27.22° C | 44% | 1014.1 hPa | 0 mm | - | - | - |
| 1788181987 | 26.67° C | 44% | 1014.2 hPa | 0 mm | - | - | - |
| 1788180187 | 27.22° C | 43% | 1014.6 hPa | 0 mm | - | - | - |
| 1788178387 | 27.22° C | 47% | 1014.5 hPa | 0 mm | - | - | - |
| 1788174788 | 27.22° C | 51% | 1014.7 hPa | 0 mm | - | - | - |
| 1788172989 | 24.44° C | 63% | 1014.6 hPa | 0 mm | - | - | - |
| 1788169388 | 20.56° C | 85% | 1014.7 hPa | 0 mm | - | - | - |
| 1788167588 | 19.44° C | 88% | 1014.6 hPa | 0 mm | - | - | - |
| 1788165788 | 18.89° C | 90% | 1014.4 hPa | 0 mm | - | - | - |
| 1788163988 | 18.33° C | 91% | 1014 hPa | 1.27 mm | - | - | - |
| 1788162189 | 17.78° C | 90% | 1013.7 hPa | 4.57 mm | - | - | - |
| 1788160388 | 17.78° C | 90% | 1014.1 hPa | 3.3 mm | - | - | - |
| 1788156788 | 16.67° C | 90% | 1012.6 hPa | 0.51 mm | - | - | - |
| 1788154989 | 16.67° C | 89% | 1013.2 hPa | 1.02 mm | - | - | - |
| 1788153189 | 16.67° C | 88% | 1013.4 hPa | 0.76 mm | - | - | - |
| 1788149589 | 16.11° C | 87% | 1013.3 hPa | 0.25 mm | - | - | - |
| 1788147789 | 16.11° C | 86% | 1013.3 hPa | 0 mm | - | - | - |
| 1788145989 | 16.11° C | 86% | 1012.9 hPa | 0 mm | - | - | - |
| 1788144189 | 15.56° C | 85% | 1013.4 hPa | 0 mm | - | - | - |
| 1788142389 | 15° C | 85% | 1014 hPa | 0 mm | - | - | - |
* Rain latest hour (hover to see other rain measurements)
** Current wind speed in m/s (hover to see current wind gust speed)